sensor_id;sensor_type;location;lat;lon;timestamp;P1;durP1;ratioP1;P2;durP2;ratioP2
79759;SDS011;70512;42.122;24.732;2024-03-22T00:00:03;21.12;;;13.85;;
79759;SDS011;70512;42.122;24.732;2024-03-22T00:02:31;24.02;;;14.75;;
79759;SDS011;70512;42.122;24.732;2024-03-22T00:04:59;20.57;;;13.80;;
79759;SDS011;70512;42.122;24.732;2024-03-22T00:07:27;25.17;;;13.22;;
79759;SDS011;70512;42.122;24.732;2024-03-22T00:09:54;22.13;;;12.82;;
79759;SDS011;70512;42.122;24.732;2024-03-22T00:12:23;21.60;;;11.90;;
79759;SDS011;70512;42.122;24.732;2024-03-22T00:14:50;17.82;;;12.07;;
79759;SDS011;70512;42.122;24.732;2024-03-22T00:17:20;18.87;;;12.30;;
79759;SDS011;70512;42.122;24.732;2024-03-22T00:19:48;22.37;;;12.35;;
79759;SDS011;70512;42.122;24.732;2024-03-22T00:22:15;20.80;;;11.73;;
79759;SDS011;70512;42.122;24.732;2024-03-22T00:24:43;17.67;;;11.80;;
79759;SDS011;70512;42.122;24.732;2024-03-22T00:27:11;19.95;;;12.60;;
79759;SDS011;70512;42.122;24.732;2024-03-22T00:29:39;22.20;;;11.53;;
79759;SDS011;70512;42.122;24.732;2024-03-22T00:32:07;22.48;;;13.62;;
79759;SDS011;70512;42.122;24.732;2024-03-22T00:34:34;19.87;;;13.03;;
79759;SDS011;70512;42.122;24.732;2024-03-22T00:37:02;19.80;;;12.28;;
79759;SDS011;70512;42.122;24.732;2024-03-22T00:39:29;17.17;;;11.95;;
79759;SDS011;70512;42.122;24.732;2024-03-22T00:41:57;18.07;;;12.63;;
79759;SDS011;70512;42.122;24.732;2024-03-22T00:44:25;22.42;;;12.88;;
79759;SDS011;70512;42.122;24.732;2024-03-22T00:46:53;20.40;;;12.78;;
79759;SDS011;70512;42.122;24.732;2024-03-22T00:49:20;25.20;;;13.50;;
79759;SDS011;70512;42.122;24.732;2024-03-22T00:51:48;24.85;;;14.65;;
79759;SDS011;70512;42.122;24.732;2024-03-22T00:54:16;24.75;;;13.45;;
79759;SDS011;70512;42.122;24.732;2024-03-22T00:56:45;23.73;;;14.20;;
79759;SDS011;70512;42.122;24.732;2024-03-22T00:59:13;20.97;;;13.80;;
79759;SDS011;70512;42.122;24.732;2024-03-22T01:01:40;23.25;;;14.50;;
79759;SDS011;70512;42.122;24.732;2024-03-22T01:04:08;22.98;;;13.35;;
79759;SDS011;70512;42.122;24.732;2024-03-22T01:06:36;22.95;;;14.10;;
79759;SDS011;70512;42.122;24.732;2024-03-22T01:09:05;23.07;;;14.13;;
79759;SDS011;70512;42.122;24.732;2024-03-22T01:11:33;32.50;;;15.53;;
79759;SDS011;70512;42.122;24.732;2024-03-22T01:14:01;24.55;;;14.58;;
79759;SDS011;70512;42.122;24.732;2024-03-22T01:16:28;26.45;;;16.15;;
79759;SDS011;70512;42.122;24.732;2024-03-22T01:18:56;25.88;;;16.37;;
79759;SDS011;70512;42.122;24.732;2024-03-22T01:21:24;26.33;;;15.43;;
79759;SDS011;70512;42.122;24.732;2024-03-22T01:23:52;27.48;;;16.30;;
79759;SDS011;70512;42.122;24.732;2024-03-22T01:26:19;23.65;;;16.32;;
79759;SDS011;70512;42.122;24.732;2024-03-22T01:28:47;35.28;;;17.12;;
79759;SDS011;70512;42.122;24.732;2024-03-22T01:31:15;22.80;;;15.40;;
79759;SDS011;70512;42.122;24.732;2024-03-22T01:33:43;30.77;;;17.60;;
79759;SDS011;70512;42.122;24.732;2024-03-22T01:36:10;25.57;;;16.52;;
79759;SDS011;70512;42.122;24.732;2024-03-22T01:38:38;26.30;;;16.20;;
79759;SDS011;70512;42.122;24.732;2024-03-22T01:41:06;26.42;;;16.55;;
79759;SDS011;70512;42.122;24.732;2024-03-22T01:43:34;32.53;;;17.42;;
79759;SDS011;70512;42.122;24.732;2024-03-22T01:46:01;27.20;;;16.67;;
79759;SDS011;70512;42.122;24.732;2024-03-22T01:48:29;24.63;;;17.25;;
79759;SDS011;70512;42.122;24.732;2024-03-22T01:50:57;27.60;;;18.12;;
79759;SDS011;70512;42.122;24.732;2024-03-22T01:53:25;27.82;;;16.82;;
79759;SDS011;70512;42.122;24.732;2024-03-22T01:55:53;31.25;;;17.12;;
79759;SDS011;70512;42.122;24.732;2024-03-22T01:58:21;32.08;;;16.57;;
79759;SDS011;70512;42.122;24.732;2024-03-22T02:00:49;28.05;;;17.17;;
79759;SDS011;70512;42.122;24.732;2024-03-22T02:03:16;31.10;;;17.73;;
79759;SDS011;70512;42.122;24.732;2024-03-22T02:05:44;33.18;;;18.98;;
79759;SDS011;70512;42.122;24.732;2024-03-22T02:08:12;29.57;;;17.77;;
79759;SDS011;70512;42.122;24.732;2024-03-22T02:10:40;32.98;;;18.60;;
79759;SDS011;70512;42.122;24.732;2024-03-22T02:13:07;36.35;;;18.30;;
79759;SDS011;70512;42.122;24.732;2024-03-22T02:15:35;31.75;;;19.23;;
79759;SDS011;70512;42.122;24.732;2024-03-22T02:18:03;58.13;;;24.72;;
79759;SDS011;70512;42.122;24.732;2024-03-22T02:20:30;40.58;;;21.48;;
79759;SDS011;70512;42.122;24.732;2024-03-22T02:22:58;54.93;;;23.22;;
79759;SDS011;70512;42.122;24.732;2024-03-22T02:25:26;37.23;;;20.35;;
79759;SDS011;70512;42.122;24.732;2024-03-22T02:27:53;30.12;;;19.62;;
79759;SDS011;70512;42.122;24.732;2024-03-22T02:30:21;41.20;;;21.37;;
79759;SDS011;70512;42.122;24.732;2024-03-22T02:32:48;30.05;;;21.05;;
79759;SDS011;70512;42.122;24.732;2024-03-22T02:35:16;30.62;;;21.73;;
79759;SDS011;70512;42.122;24.732;2024-03-22T02:37:44;32.05;;;19.95;;
79759;SDS011;70512;42.122;24.732;2024-03-22T02:40:12;30.65;;;20.40;;
79759;SDS011;70512;42.122;24.732;2024-03-22T02:42:39;28.55;;;18.65;;
79759;SDS011;70512;42.122;24.732;2024-03-22T02:45:07;32.25;;;19.40;;
79759;SDS011;70512;42.122;24.732;2024-03-22T02:47:35;29.15;;;18.40;;
79759;SDS011;70512;42.122;24.732;2024-03-22T02:50:03;29.05;;;19.50;;
79759;SDS011;70512;42.122;24.732;2024-03-22T02:52:31;40.65;;;19.75;;
79759;SDS011;70512;42.122;24.732;2024-03-22T02:54:59;26.68;;;17.48;;
79759;SDS011;70512;42.122;24.732;2024-03-22T02:57:27;33.10;;;19.55;;
79759;SDS011;70512;42.122;24.732;2024-03-22T02:59:55;28.23;;;18.40;;
79759;SDS011;70512;42.122;24.732;2024-03-22T03:02:24;26.25;;;18.15;;
79759;SDS011;70512;42.122;24.732;2024-03-22T03:04:52;28.25;;;18.52;;
79759;SDS011;70512;42.122;24.732;2024-03-22T03:07:19;27.13;;;17.27;;
79759;SDS011;70512;42.122;24.732;2024-03-22T03:09:47;31.37;;;18.12;;
79759;SDS011;70512;42.122;24.732;2024-03-22T03:12:14;28.07;;;18.80;;
79759;SDS011;70512;42.122;24.732;2024-03-22T03:14:42;28.98;;;17.90;;
79759;SDS011;70512;42.122;24.732;2024-03-22T03:17:10;28.57;;;17.95;;
79759;SDS011;70512;42.122;24.732;2024-03-22T03:19:37;27.25;;;18.35;;
79759;SDS011;70512;42.122;24.732;2024-03-22T03:22:05;34.25;;;19.12;;
79759;SDS011;70512;42.122;24.732;2024-03-22T03:24:33;28.45;;;17.50;;
79759;SDS011;70512;42.122;24.732;2024-03-22T03:27:00;36.13;;;18.27;;
79759;SDS011;70512;42.122;24.732;2024-03-22T03:29:28;32.28;;;18.25;;
79759;SDS011;70512;42.122;24.732;2024-03-22T03:31:56;31.20;;;18.02;;
79759;SDS011;70512;42.122;24.732;2024-03-22T03:34:24;32.73;;;17.90;;
79759;SDS011;70512;42.122;24.732;2024-03-22T03:36:51;32.28;;;19.00;;
79759;SDS011;70512;42.122;24.732;2024-03-22T03:39:19;39.03;;;18.82;;
79759;SDS011;70512;42.122;24.732;2024-03-22T03:41:47;33.58;;;17.75;;
79759;SDS011;70512;42.122;24.732;2024-03-22T03:44:14;40.85;;;20.43;;
79759;SDS011;70512;42.122;24.732;2024-03-22T03:46:42;55.40;;;24.20;;
79759;SDS011;70512;42.122;24.732;2024-03-22T03:49:10;47.43;;;24.32;;
79759;SDS011;70512;42.122;24.732;2024-03-22T03:51:37;58.17;;;24.75;;
79759;SDS011;70512;42.122;24.732;2024-03-22T03:54:05;42.13;;;23.00;;
79759;SDS011;70512;42.122;24.732;2024-03-22T03:56:33;44.93;;;22.27;;
79759;SDS011;70512;42.122;24.732;2024-03-22T03:59:00;44.42;;;23.35;;
79759;SDS011;70512;42.122;24.732;2024-03-22T04:01:28;38.55;;;23.07;;
79759;SDS011;70512;42.122;24.732;2024-03-22T04:03:56;35.75;;;22.13;;
79759;SDS011;70512;42.122;24.732;2024-03-22T04:06:23;38.53;;;23.00;;
79759;SDS011;70512;42.122;24.732;2024-03-22T04:08:51;39.75;;;21.62;;
79759;SDS011;70512;42.122;24.732;2024-03-22T04:11:19;46.35;;;25.02;;
79759;SDS011;70512;42.122;24.732;2024-03-22T04:13:46;39.18;;;22.35;;
79759;SDS011;70512;42.122;24.732;2024-03-22T04:16:14;35.17;;;21.05;;
79759;SDS011;70512;42.122;24.732;2024-03-22T04:18:42;36.45;;;21.48;;
79759;SDS011;70512;42.122;24.732;2024-03-22T04:21:09;35.90;;;21.82;;
79759;SDS011;70512;42.122;24.732;2024-03-22T04:23:37;35.00;;;20.70;;
79759;SDS011;70512;42.122;24.732;2024-03-22T04:26:05;37.23;;;20.60;;
79759;SDS011;70512;42.122;24.732;2024-03-22T04:28:32;55.43;;;22.42;;
79759;SDS011;70512;42.122;24.732;2024-03-22T04:31:01;40.17;;;20.72;;
79759;SDS011;70512;42.122;24.732;2024-03-22T04:33:30;32.50;;;20.80;;
79759;SDS011;70512;42.122;24.732;2024-03-22T04:35:59;35.13;;;19.65;;
79759;SDS011;70512;42.122;24.732;2024-03-22T04:38:28;38.70;;;20.15;;
79759;SDS011;70512;42.122;24.732;2024-03-22T04:40:56;32.30;;;19.07;;
79759;SDS011;70512;42.122;24.732;2024-03-22T04:43:24;35.85;;;19.37;;
79759;SDS011;70512;42.122;24.732;2024-03-22T04:45:52;45.78;;;21.50;;
79759;SDS011;70512;42.122;24.732;2024-03-22T04:48:20;41.60;;;19.60;;
79759;SDS011;70512;42.122;24.732;2024-03-22T04:50:49;39.83;;;20.60;;
79759;SDS011;70512;42.122;24.732;2024-03-22T04:53:18;46.02;;;21.23;;
79759;SDS011;70512;42.122;24.732;2024-03-22T04:55:49;41.68;;;22.80;;
79759;SDS011;70512;42.122;24.732;2024-03-22T04:58:18;43.98;;;21.77;;
79759;SDS011;70512;42.122;24.732;2024-03-22T05:00:47;42.43;;;20.80;;
79759;SDS011;70512;42.122;24.732;2024-03-22T05:03:16;36.90;;;18.55;;
79759;SDS011;70512;42.122;24.732;2024-03-22T05:05:44;44.63;;;18.27;;
79759;SDS011;70512;42.122;24.732;2024-03-22T05:08:12;37.25;;;19.50;;
79759;SDS011;70512;42.122;24.732;2024-03-22T05:10:41;46.68;;;20.77;;
79759;SDS011;70512;42.122;24.732;2024-03-22T05:13:08;44.55;;;19.20;;
79759;SDS011;70512;42.122;24.732;2024-03-22T05:15:36;33.00;;;18.30;;
79759;SDS011;70512;42.122;24.732;2024-03-22T05:18:04;47.20;;;20.88;;
79759;SDS011;70512;42.122;24.732;2024-03-22T05:20:32;40.33;;;18.85;;
79759;SDS011;70512;42.122;24.732;2024-03-22T05:22:59;40.67;;;19.35;;
79759;SDS011;70512;42.122;24.732;2024-03-22T05:25:27;34.63;;;19.87;;
79759;SDS011;70512;42.122;24.732;2024-03-22T05:27:55;36.83;;;18.52;;
79759;SDS011;70512;42.122;24.732;2024-03-22T05:30:22;48.35;;;19.48;;
79759;SDS011;70512;42.122;24.732;2024-03-22T05:32:50;27.55;;;17.87;;
79759;SDS011;70512;42.122;24.732;2024-03-22T05:35:18;40.33;;;18.05;;
79759;SDS011;70512;42.122;24.732;2024-03-22T05:37:45;39.85;;;18.40;;
79759;SDS011;70512;42.122;24.732;2024-03-22T05:40:14;28.62;;;15.48;;
79759;SDS011;70512;42.122;24.732;2024-03-22T05:42:42;38.05;;;16.77;;
79759;SDS011;70512;42.122;24.732;2024-03-22T05:45:10;28.10;;;17.07;;
79759;SDS011;70512;42.122;24.732;2024-03-22T05:47:39;29.45;;;15.68;;
79759;SDS011;70512;42.122;24.732;2024-03-22T05:50:08;29.67;;;14.15;;
79759;SDS011;70512;42.122;24.732;2024-03-22T05:52:36;27.98;;;14.73;;
79759;SDS011;70512;42.122;24.732;2024-03-22T05:55:04;31.10;;;16.42;;
79759;SDS011;70512;42.122;24.732;2024-03-22T05:57:32;35.60;;;16.65;;
79759;SDS011;70512;42.122;24.732;2024-03-22T06:00:00;33.90;;;18.92;;
79759;SDS011;70512;42.122;24.732;2024-03-22T06:02:29;32.63;;;16.37;;
79759;SDS011;70512;42.122;24.732;2024-03-22T06:04:57;29.55;;;14.95;;
79759;SDS011;70512;42.122;24.732;2024-03-22T06:07:29;22.62;;;13.88;;
79759;SDS011;70512;42.122;24.732;2024-03-22T06:09:55;28.02;;;15.35;;
79759;SDS011;70512;42.122;24.732;2024-03-22T06:12:22;36.93;;;18.20;;
79759;SDS011;70512;42.122;24.732;2024-03-22T06:14:50;24.27;;;11.57;;
79759;SDS011;70512;42.122;24.732;2024-03-22T06:17:18;28.45;;;13.80;;
79759;SDS011;70512;42.122;24.732;2024-03-22T06:19:45;24.23;;;15.25;;
79759;SDS011;70512;42.122;24.732;2024-03-22T06:22:13;30.90;;;14.13;;
79759;SDS011;70512;42.122;24.732;2024-03-22T06:24:40;27.52;;;14.83;;
79759;SDS011;70512;42.122;24.732;2024-03-22T06:27:08;27.27;;;15.75;;
79759;SDS011;70512;42.122;24.732;2024-03-22T06:29:36;25.20;;;14.05;;
79759;SDS011;70512;42.122;24.732;2024-03-22T06:32:04;19.98;;;13.93;;
79759;SDS011;70512;42.122;24.732;2024-03-22T06:34:32;21.95;;;13.70;;
79759;SDS011;70512;42.122;24.732;2024-03-22T06:37:00;29.15;;;13.72;;
79759;SDS011;70512;42.122;24.732;2024-03-22T06:39:28;19.17;;;13.13;;
79759;SDS011;70512;42.122;24.732;2024-03-22T06:41:56;21.35;;;13.35;;
79759;SDS011;70512;42.122;24.732;2024-03-22T06:44:24;30.80;;;13.45;;
79759;SDS011;70512;42.122;24.732;2024-03-22T06:46:53;23.60;;;13.22;;
79759;SDS011;70512;42.122;24.732;2024-03-22T06:49:21;18.02;;;12.47;;
79759;SDS011;70512;42.122;24.732;2024-03-22T06:51:50;19.07;;;12.30;;
79759;SDS011;70512;42.122;24.732;2024-03-22T06:54:18;21.00;;;12.23;;
79759;SDS011;70512;42.122;24.732;2024-03-22T06:56:46;18.42;;;10.45;;
79759;SDS011;70512;42.122;24.732;2024-03-22T06:59:13;17.17;;;12.15;;
79759;SDS011;70512;42.122;24.732;2024-03-22T07:01:41;19.77;;;10.40;;
79759;SDS011;70512;42.122;24.732;2024-03-22T07:04:09;20.62;;;10.93;;
79759;SDS011;70512;42.122;24.732;2024-03-22T07:06:37;17.05;;;11.08;;
79759;SDS011;70512;42.122;24.732;2024-03-22T07:09:08;22.25;;;12.23;;
79759;SDS011;70512;42.122;24.732;2024-03-22T07:11:37;18.90;;;11.85;;
79759;SDS011;70512;42.122;24.732;2024-03-22T07:14:04;23.98;;;12.07;;
79759;SDS011;70512;42.122;24.732;2024-03-22T07:16:32;15.50;;;11.30;;
79759;SDS011;70512;42.122;24.732;2024-03-22T07:19:00;20.57;;;11.73;;
79759;SDS011;70512;42.122;24.732;2024-03-22T07:21:28;14.40;;;11.15;;
79759;SDS011;70512;42.122;24.732;2024-03-22T07:23:56;19.82;;;12.30;;
79759;SDS011;70512;42.122;24.732;2024-03-22T07:26:24;17.77;;;10.85;;
79759;SDS011;70512;42.122;24.732;2024-03-22T07:28:52;13.32;;;11.22;;
79759;SDS011;70512;42.122;24.732;2024-03-22T07:31:20;12.93;;;9.65;;
79759;SDS011;70512;42.122;24.732;2024-03-22T07:33:47;23.70;;;12.15;;
79759;SDS011;70512;42.122;24.732;2024-03-22T07:36:15;15.55;;;11.53;;
79759;SDS011;70512;42.122;24.732;2024-03-22T07:38:43;19.35;;;11.88;;
79759;SDS011;70512;42.122;24.732;2024-03-22T07:41:11;19.02;;;12.07;;
79759;SDS011;70512;42.122;24.732;2024-03-22T07:43:38;22.62;;;11.68;;
79759;SDS011;70512;42.122;24.732;2024-03-22T07:46:06;15.70;;;10.90;;
79759;SDS011;70512;42.122;24.732;2024-03-22T07:48:34;18.55;;;11.08;;
79759;SDS011;70512;42.122;24.732;2024-03-22T07:51:01;15.03;;;9.98;;
79759;SDS011;70512;42.122;24.732;2024-03-22T07:53:29;28.25;;;10.53;;
79759;SDS011;70512;42.122;24.732;2024-03-22T07:55:57;15.68;;;11.55;;
79759;SDS011;70512;42.122;24.732;2024-03-22T07:58:26;13.70;;;10.48;;
79759;SDS011;70512;42.122;24.732;2024-03-22T08:00:54;13.48;;;9.40;;
79759;SDS011;70512;42.122;24.732;2024-03-22T08:03:22;16.97;;;11.28;;
79759;SDS011;70512;42.122;24.732;2024-03-22T08:05:50;15.50;;;11.08;;
79759;SDS011;70512;42.122;24.732;2024-03-22T08:08:18;17.70;;;11.97;;
79759;SDS011;70512;42.122;24.732;2024-03-22T08:10:45;19.35;;;11.57;;
79759;SDS011;70512;42.122;24.732;2024-03-22T08:13:14;16.15;;;11.20;;
79759;SDS011;70512;42.122;24.732;2024-03-22T08:15:41;16.77;;;11.15;;
79759;SDS011;70512;42.122;24.732;2024-03-22T08:18:11;18.40;;;10.75;;
79759;SDS011;70512;42.122;24.732;2024-03-22T08:20:39;12.45;;;10.43;;
79759;SDS011;70512;42.122;24.732;2024-03-22T08:23:06;17.07;;;10.08;;
79759;SDS011;70512;42.122;24.732;2024-03-22T08:25:35;27.30;;;12.28;;
79759;SDS011;70512;42.122;24.732;2024-03-22T08:28:03;16.25;;;10.25;;
79759;SDS011;70512;42.122;24.732;2024-03-22T08:30:30;11.93;;;8.30;;
79759;SDS011;70512;42.122;24.732;2024-03-22T08:32:58;9.40;;;8.48;;
79759;SDS011;70512;42.122;24.732;2024-03-22T08:35:26;19.77;;;9.48;;
79759;SDS011;70512;42.122;24.732;2024-03-22T08:37:53;10.58;;;9.13;;
79759;SDS011;70512;42.122;24.732;2024-03-22T08:40:22;15.20;;;10.43;;
79759;SDS011;70512;42.122;24.732;2024-03-22T08:42:49;14.03;;;9.28;;
79759;SDS011;70512;42.122;24.732;2024-03-22T08:45:17;18.20;;;10.53;;
79759;SDS011;70512;42.122;24.732;2024-03-22T08:47:45;17.67;;;10.78;;
79759;SDS011;70512;42.122;24.732;2024-03-22T08:50:13;15.63;;;9.68;;
79759;SDS011;70512;42.122;24.732;2024-03-22T08:52:40;13.45;;;10.03;;
79759;SDS011;70512;42.122;24.732;2024-03-22T08:55:08;17.95;;;10.43;;
79759;SDS011;70512;42.122;24.732;2024-03-22T08:57:36;13.45;;;8.65;;
79759;SDS011;70512;42.122;24.732;2024-03-22T09:00:04;17.35;;;7.55;;
79759;SDS011;70512;42.122;24.732;2024-03-22T09:02:34;15.10;;;7.70;;
79759;SDS011;70512;42.122;24.732;2024-03-22T09:05:02;9.03;;;6.87;;
79759;SDS011;70512;42.122;24.732;2024-03-22T09:07:29;13.48;;;7.12;;
79759;SDS011;70512;42.122;24.732;2024-03-22T09:09:57;11.85;;;7.33;;
79759;SDS011;70512;42.122;24.732;2024-03-22T09:12:25;15.95;;;8.90;;
79759;SDS011;70512;42.122;24.732;2024-03-22T09:14:53;12.07;;;7.28;;
79759;SDS011;70512;42.122;24.732;2024-03-22T09:17:21;10.40;;;7.17;;
79759;SDS011;70512;42.122;24.732;2024-03-22T09:19:49;12.18;;;7.55;;
79759;SDS011;70512;42.122;24.732;2024-03-22T09:22:16;10.48;;;7.75;;
79759;SDS011;70512;42.122;24.732;2024-03-22T09:24:44;14.58;;;7.47;;
79759;SDS011;70512;42.122;24.732;2024-03-22T09:27:12;10.32;;;7.75;;
79759;SDS011;70512;42.122;24.732;2024-03-22T09:29:39;12.85;;;8.00;;
79759;SDS011;70512;42.122;24.732;2024-03-22T09:32:09;12.90;;;7.22;;
79759;SDS011;70512;42.122;24.732;2024-03-22T09:34:37;15.23;;;6.62;;
79759;SDS011;70512;42.122;24.732;2024-03-22T09:37:06;8.78;;;6.60;;
79759;SDS011;70512;42.122;24.732;2024-03-22T09:39:34;5.40;;;4.40;;
79759;SDS011;70512;42.122;24.732;2024-03-22T09:42:02;7.83;;;4.58;;
79759;SDS011;70512;42.122;24.732;2024-03-22T09:44:32;4.22;;;3.47;;
79759;SDS011;70512;42.122;24.732;2024-03-22T09:47:01;7.60;;;3.45;;
79759;SDS011;70512;42.122;24.732;2024-03-22T09:49:29;10.63;;;5.35;;
79759;SDS011;70512;42.122;24.732;2024-03-22T09:51:57;9.50;;;4.30;;
79759;SDS011;70512;42.122;24.732;2024-03-22T09:54:25;8.00;;;3.08;;
79759;SDS011;70512;42.122;24.732;2024-03-22T09:56:53;17.95;;;9.08;;
79759;SDS011;70512;42.122;24.732;2024-03-22T09:59:22;5.30;;;4.00;;
79759;SDS011;70512;42.122;24.732;2024-03-22T10:01:51;4.20;;;3.80;;
79759;SDS011;70512;42.122;24.732;2024-03-22T10:04:21;9.90;;;4.55;;
79759;SDS011;70512;42.122;24.732;2024-03-22T10:06:49;7.53;;;4.12;;
79759;SDS011;70512;42.122;24.732;2024-03-22T10:09:17;4.70;;;3.72;;
79759;SDS011;70512;42.122;24.732;2024-03-22T10:11:44;11.85;;;4.53;;
79759;SDS011;70512;42.122;24.732;2024-03-22T10:14:14;12.07;;;6.35;;
79759;SDS011;70512;42.122;24.732;2024-03-22T10:16:42;12.70;;;6.75;;
79759;SDS011;70512;42.122;24.732;2024-03-22T10:19:09;8.55;;;6.05;;
79759;SDS011;70512;42.122;24.732;2024-03-22T10:21:37;7.75;;;6.10;;
79759;SDS011;70512;42.122;24.732;2024-03-22T10:24:05;9.08;;;5.92;;
79759;SDS011;70512;42.122;24.732;2024-03-22T10:26:33;6.40;;;4.75;;
79759;SDS011;70512;42.122;24.732;2024-03-22T10:29:05;14.55;;;6.05;;
79759;SDS011;70512;42.122;24.732;2024-03-22T10:31:35;7.65;;;5.80;;
79759;SDS011;70512;42.122;24.732;2024-03-22T10:34:03;9.23;;;5.45;;
79759;SDS011;70512;42.122;24.732;2024-03-22T10:36:30;6.97;;;5.47;;
79759;SDS011;70512;42.122;24.732;2024-03-22T10:38:59;9.83;;;7.17;;
79759;SDS011;70512;42.122;24.732;2024-03-22T10:41:29;10.88;;;6.17;;
79759;SDS011;70512;42.122;24.732;2024-03-22T10:43:57;9.63;;;4.87;;
79759;SDS011;70512;42.122;24.732;2024-03-22T10:46:30;5.53;;;2.98;;
79759;SDS011;70512;42.122;24.732;2024-03-22T10:51:24;4.30;;;3.15;;
79759;SDS011;70512;42.122;24.732;2024-03-22T10:53:53;5.65;;;3.45;;
79759;SDS011;70512;42.122;24.732;2024-03-22T10:56:23;9.58;;;3.98;;
79759;SDS011;70512;42.122;24.732;2024-03-22T10:58:51;7.10;;;4.03;;
79759;SDS011;70512;42.122;24.732;2024-03-22T11:01:22;10.28;;;5.60;;
79759;SDS011;70512;42.122;24.732;2024-03-22T11:04:04;13.05;;;6.17;;
79759;SDS011;70512;42.122;24.732;2024-03-22T11:06:32;7.35;;;4.83;;
79759;SDS011;70512;42.122;24.732;2024-03-22T11:09:00;7.80;;;3.55;;
79759;SDS011;70512;42.122;24.732;2024-03-22T11:11:29;5.70;;;3.22;;
79759;SDS011;70512;42.122;24.732;2024-03-22T11:14:02;5.90;;;3.20;;
79759;SDS011;70512;42.122;24.732;2024-03-22T11:16:30;8.05;;;5.67;;
79759;SDS011;70512;42.122;24.732;2024-03-22T11:18:57;6.12;;;4.40;;
79759;SDS011;70512;42.122;24.732;2024-03-22T11:21:25;9.08;;;5.28;;
79759;SDS011;70512;42.122;24.732;2024-03-22T11:23:53;7.00;;;3.58;;
79759;SDS011;70512;42.122;24.732;2024-03-22T11:26:21;11.25;;;6.62;;
79759;SDS011;70512;42.122;24.732;2024-03-22T11:28:48;5.90;;;5.22;;
79759;SDS011;70512;42.122;24.732;2024-03-22T11:31:16;4.67;;;3.35;;
79759;SDS011;70512;42.122;24.732;2024-03-22T11:33:46;7.83;;;3.97;;
79759;SDS011;70512;42.122;24.732;2024-03-22T11:36:18;6.87;;;3.95;;
79759;SDS011;70512;42.122;24.732;2024-03-22T11:38:43;5.00;;;3.22;;
79759;SDS011;70512;42.122;24.732;2024-03-22T11:41:11;7.72;;;4.58;;
79759;SDS011;70512;42.122;24.732;2024-03-22T11:43:41;7.78;;;4.03;;
79759;SDS011;70512;42.122;24.732;2024-03-22T11:46:24;9.98;;;3.02;;
79759;SDS011;70512;42.122;24.732;2024-03-22T11:48:52;10.75;;;4.45;;
79759;SDS011;70512;42.122;24.732;2024-03-22T11:51:21;7.75;;;4.15;;
79759;SDS011;70512;42.122;24.732;2024-03-22T11:53:49;3.80;;;3.50;;
79759;SDS011;70512;42.122;24.732;2024-03-22T11:56:22;3.65;;;3.35;;
79759;SDS011;70512;42.122;24.732;2024-03-22T11:58:57;6.43;;;4.17;;
79759;SDS011;70512;42.122;24.732;2024-03-22T12:01:29;5.92;;;3.92;;
79759;SDS011;70512;42.122;24.732;2024-03-22T12:03:57;5.55;;;3.87;;
79759;SDS011;70512;42.122;24.732;2024-03-22T12:06:24;3.87;;;3.45;;
79759;SDS011;70512;42.122;24.732;2024-03-22T12:08:52;9.68;;;4.40;;
79759;SDS011;70512;42.122;24.732;2024-03-22T12:11:20;5.20;;;3.47;;
79759;SDS011;70512;42.122;24.732;2024-03-22T12:13:48;8.43;;;4.40;;
79759;SDS011;70512;42.122;24.732;2024-03-22T12:16:16;6.10;;;4.03;;
79759;SDS011;70512;42.122;24.732;2024-03-22T12:18:44;9.50;;;4.12;;
79759;SDS011;70512;42.122;24.732;2024-03-22T12:21:13;9.53;;;8.50;;
79759;SDS011;70512;42.122;24.732;2024-03-22T12:23:41;4.20;;;3.80;;
79759;SDS011;70512;42.122;24.732;2024-03-22T12:26:09;5.53;;;2.92;;
79759;SDS011;70512;42.122;24.732;2024-03-22T12:28:36;5.80;;;3.58;;
79759;SDS011;70512;42.122;24.732;2024-03-22T12:31:04;9.20;;;3.47;;
79759;SDS011;70512;42.122;24.732;2024-03-22T12:33:33;8.43;;;5.80;;
79759;SDS011;70512;42.122;24.732;2024-03-22T12:36:01;5.65;;;3.90;;
79759;SDS011;70512;42.122;24.732;2024-03-22T12:38:29;6.28;;;3.72;;
79759;SDS011;70512;42.122;24.732;2024-03-22T12:40:57;5.35;;;3.15;;
79759;SDS011;70512;42.122;24.732;2024-03-22T12:43:25;7.28;;;3.70;;
79759;SDS011;70512;42.122;24.732;2024-03-22T12:45:52;3.98;;;2.75;;
79759;SDS011;70512;42.122;24.732;2024-03-22T12:48:20;6.72;;;3.77;;
79759;SDS011;70512;42.122;24.732;2024-03-22T12:50:48;4.92;;;2.87;;
79759;SDS011;70512;42.122;24.732;2024-03-22T12:53:15;11.83;;;3.83;;
79759;SDS011;70512;42.122;24.732;2024-03-22T12:55:43;9.15;;;4.33;;
79759;SDS011;70512;42.122;24.732;2024-03-22T12:58:11;6.17;;;3.22;;
79759;SDS011;70512;42.122;24.732;2024-03-22T13:00:38;5.80;;;3.27;;
79759;SDS011;70512;42.122;24.732;2024-03-22T13:03:06;8.43;;;3.87;;
79759;SDS011;70512;42.122;24.732;2024-03-22T13:05:34;7.42;;;3.87;;
79759;SDS011;70512;42.122;24.732;2024-03-22T13:08:02;8.73;;;3.37;;
79759;SDS011;70512;42.122;24.732;2024-03-22T13:10:29;4.05;;;2.95;;
79759;SDS011;70512;42.122;24.732;2024-03-22T13:12:57;4.97;;;3.35;;
79759;SDS011;70512;42.122;24.732;2024-03-22T13:15:25;10.18;;;3.60;;
79759;SDS011;70512;42.122;24.732;2024-03-22T13:17:52;6.15;;;3.22;;
79759;SDS011;70512;42.122;24.732;2024-03-22T13:20:22;6.65;;;3.70;;
79759;SDS011;70512;42.122;24.732;2024-03-22T13:22:49;7.72;;;3.72;;
79759;SDS011;70512;42.122;24.732;2024-03-22T13:25:17;3.22;;;2.87;;
79759;SDS011;70512;42.122;24.732;2024-03-22T13:27:45;4.00;;;3.42;;
79759;SDS011;70512;42.122;24.732;2024-03-22T13:30:13;9.15;;;4.75;;
79759;SDS011;70512;42.122;24.732;2024-03-22T13:32:41;3.58;;;3.27;;
79759;SDS011;70512;42.122;24.732;2024-03-22T13:35:08;6.97;;;3.45;;
79759;SDS011;70512;42.122;24.732;2024-03-22T13:37:37;5.03;;;3.08;;
79759;SDS011;70512;42.122;24.732;2024-03-22T13:40:05;4.83;;;2.90;;
79759;SDS011;70512;42.122;24.732;2024-03-22T13:42:33;5.55;;;3.37;;
79759;SDS011;70512;42.122;24.732;2024-03-22T13:45:01;10.38;;;4.80;;
79759;SDS011;70512;42.122;24.732;2024-03-22T13:47:29;5.87;;;2.92;;
79759;SDS011;70512;42.122;24.732;2024-03-22T13:49:57;4.22;;;3.55;;
79759;SDS011;70512;42.122;24.732;2024-03-22T13:52:24;3.58;;;2.90;;
79759;SDS011;70512;42.122;24.732;2024-03-22T13:54:52;3.45;;;3.08;;
79759;SDS011;70512;42.122;24.732;2024-03-22T13:57:20;4.50;;;3.58;;
79759;SDS011;70512;42.122;24.732;2024-03-22T13:59:47;5.60;;;2.90;;
79759;SDS011;70512;42.122;24.732;2024-03-22T14:02:15;3.83;;;2.80;;
79759;SDS011;70512;42.122;24.732;2024-03-22T14:04:43;7.00;;;4.72;;
79759;SDS011;70512;42.122;24.732;2024-03-22T14:07:10;8.13;;;4.05;;
79759;SDS011;70512;42.122;24.732;2024-03-22T14:09:38;5.92;;;3.42;;
79759;SDS011;70512;42.122;24.732;2024-03-22T14:12:06;9.50;;;8.53;;
79759;SDS011;70512;42.122;24.732;2024-03-22T14:14:34;7.45;;;3.47;;
79759;SDS011;70512;42.122;24.732;2024-03-22T14:17:02;5.67;;;3.30;;
79759;SDS011;70512;42.122;24.732;2024-03-22T14:19:29;4.55;;;2.60;;
79759;SDS011;70512;42.122;24.732;2024-03-22T14:21:57;7.00;;;3.72;;
79759;SDS011;70512;42.122;24.732;2024-03-22T14:24:25;6.60;;;4.15;;